Time;durP1;ratioP1;P1;durP2;ratioP2;P2;SDS_P1;SDS_P2;PMS_P1;PMS_P2;Temp;Humidity;BMP_temperature;BMP_pressure;BME280_temperature;BME280_humidity;BME280_pressure;Samples;Min_cycle;Max_cycle;Signal;HPM_P1;HPM_P2
2022/08/20 00:01:57;;;;;;;13.45;6.32;;;;;;;20.96;82.94;101089.03;5095113;28;20409;-53
2022/08/20 00:04:24;;;;;;;12.15;5.55;;;;;;;20.90;83.33;101093.44;5094720;28;20043;-53
2022/08/20 00:06:51;;;;;;;15.45;5.63;;;;;;;20.84;83.94;101090.75;5091932;28;20093;-51
2022/08/20 00:09:18;;;;;;;12.18;6.05;;;;;;;20.88;84.53;101086.56;5094967;28;20485;-53
2022/08/20 00:11:45;;;;;;;16.17;6.75;;;;;;;20.78;86.32;101081.66;5095129;28;20134;-51
2022/08/20 00:14:12;;;;;;;16.27;6.80;;;;;;;20.72;86.67;101087.91;5091766;28;20101;-52
2022/08/20 00:16:38;;;;;;;16.83;6.78;;;;;;;20.85;88.67;101081.63;5095005;28;20489;-53
2022/08/20 00:19:07;;;;;;;21.98;8.35;;;;;;;20.89;89.85;101080.16;5094653;28;20056;-54
2022/08/20 00:21:35;;;;;;;17.67;9.13;;;;;;;20.77;89.96;101079.16;5095228;28;20040;-52
2022/08/20 00:24:03;;;;;;;23.80;9.18;;;;;;;20.60;91.16;101079.59;4965234;28;20044;-54
2022/08/20 00:26:30;;;;;;;29.17;9.75;;;;;;;20.63;93.83;101081.91;5094939;28;20086;-52
2022/08/20 00:28:56;;;;;;;20.10;9.60;;;;;;;20.45;92.59;101087.13;5094383;28;20044;-53
2022/08/20 00:31:24;;;;;;;28.15;9.98;;;;;;;20.40;93.53;101085.03;5094937;28;20058;-54
2022/08/20 00:33:52;;;;;;;22.23;10.50;;;;;;;20.30;93.99;101090.03;5094104;28;20113;-53
2022/08/20 00:36:20;;;;;;;21.05;9.60;;;;;;;20.18;94.68;101081.78;5094756;28;20097;-50
2022/08/20 00:38:47;;;;;;;22.38;9.05;;;;;;;20.10;96.63;101082.81;5094579;28;20093;-52
2022/08/20 00:41:20;;;;;;;24.40;10.15;;;;;;;20.17;97.04;101085.50;5094554;28;20044;-53
2022/08/20 00:43:52;;;;;;;25.75;10.23;;;;;;;19.99;96.72;101078.03;5094288;28;20040;-52
2022/08/20 00:46:26;;;;;;;24.92;9.55;;;;;;;20.03;97.25;101081.16;5094491;28;20055;-54
2022/08/20 00:48:54;;;;;;;19.55;9.35;;;;;;;20.09;97.46;101074.94;5094114;28;20093;-54
2022/08/20 00:51:43;;;;;;;22.23;10.48;;;;;;;19.99;98.55;101069.97;5094248;28;20127;-54
2022/08/20 00:54:33;;;;;;;22.23;10.10;;;;;;;19.88;99.60;101074.16;5093934;28;20122;-53
2022/08/20 00:57:06;;;;;;;22.33;10.50;;;;;;;19.93;98.91;101068.94;5094129;28;20048;-53
2022/08/20 00:59:33;;;;;;;;;;;;;;;20.02;98.79;101064.19;5094621;28;20063;-53
2022/08/20 01:02:02;;;;;;;18.65;10.88;;;;;;;19.98;98.49;101067.50;5093129;28;19924;-52
2022/08/20 01:04:33;;;;;;;23.17;10.98;;;;;;;19.96;100.00;101064.19;5093912;28;20036;-51
2022/08/20 01:07:01;;;;;;;20.25;10.93;;;;;;;19.96;98.79;101064.19;5094234;28;20052;-52
2022/08/20 01:09:28;;;;;;;22.95;11.38;;;;;;;19.96;99.52;101061.50;5093570;28;20401;-53
2022/08/20 01:11:55;;;;;;;24.40;10.68;;;;;;;20.00;100.00;101060.88;5093768;28;20040;-53
2022/08/20 01:14:52;;;;;;;27.13;11.65;;;;;;;19.98;100.00;101060.25;5094111;28;20127;-53
2022/08/20 01:17:12;;;;;;;25.90;11.60;;;;;;;20.04;99.22;101064.78;5086950;28;20039;-51
2022/08/20 01:19:47;;;;;;;20.95;10.68;;;;;;;20.05;98.23;101074.53;5093711;28;20081;-53
2022/08/20 01:25:17;;;;;;;27.80;10.85;;;;;;;20.01;100.00;101072.47;5033752;28;20044;-53
2022/08/20 01:27:45;;;;;;;26.85;11.13;;;;;;;20.01;99.07;101088.63;5093849;28;20548;-53
2022/08/20 01:30:11;;;;;;;25.20;11.35;;;;;;;19.93;99.46;101082.41;5093398;28;20124;-53
2022/08/20 01:32:38;;;;;;;25.70;11.43;;;;;;;20.05;99.98;101074.53;5093557;28;20196;-53
2022/08/20 01:35:05;;;;;;;24.38;10.77;;;;;;;20.03;97.35;101075.75;5093146;28;20436;-53
2022/08/20 01:37:32;;;;;;;20.38;11.25;;;;;;;19.89;99.12;101074.97;5093628;28;20050;-53
2022/08/20 01:40:00;;;;;;;24.35;11.70;;;;;;;19.83;100.00;101083.84;5093663;28;20393;-53
2022/08/20 01:42:35;;;;;;;23.48;11.27;;;;;;;19.88;100.00;101081.38;5093554;28;20048;-54
2022/08/20 01:45:03;;;;;;;25.20;11.38;;;;;;;19.85;100.00;101074.56;5093624;28;20044;-54
2022/08/20 01:47:32;;;;;;;22.55;10.75;;;;;;;20.00;99.34;101071.63;5093501;28;20169;-53
2022/08/20 01:50:03;;;;;;;22.90;11.45;;;;;;;19.91;100.00;101079.09;5093410;28;20052;-53
2022/08/20 01:52:40;;;;;;;27.45;11.30;;;;;;;19.90;100.00;101088.22;5093030;28;20052;-50
2022/08/20 01:55:08;;;;;;;21.90;11.07;;;;;;;19.86;100.00;101089.66;5093469;28;20143;-50
2022/08/20 01:57:37;;;;;;;23.05;10.00;;;;;;;20.00;98.33;101097.75;5093496;28;20109;-51
2022/08/20 02:00:08;;;;;;;21.58;10.10;;;;;;;19.86;99.10;101097.72;5093461;28;20191;-51
2022/08/20 02:02:35;;;;;;;21.75;10.52;;;;;;;19.75;99.08;101095.66;5093539;28;20565;-52
2022/08/20 02:05:03;;;;;;;23.67;11.30;;;;;;;19.78;100.00;101089.06;5092799;28;20266;-53
2022/08/20 02:07:30;;;;;;;20.10;10.30;;;;;;;19.78;99.83;101097.13;5093133;28;20417;-52
2022/08/20 02:09:58;;;;;;;19.17;10.27;;;;;;;19.84;100.00;101091.72;5093264;28;20457;-52
2022/08/20 02:12:25;;;;;;;20.73;9.82;;;;;;;19.74;100.00;101089.44;5093372;28;20089;-51
2022/08/20 02:14:53;;;;;;;24.30;10.32;;;;;;;19.84;98.89;101101.66;5095320;28;20093;-51
2022/08/20 02:17:23;;;;;;;19.98;9.85;;;;;;;19.78;100.00;101092.56;5097422;28;20098;-52
2022/08/20 02:19:55;;;;;;;21.08;10.02;;;;;;;19.72;100.00;101085.28;5093721;28;20048;-52
2022/08/20 02:22:32;;;;;;;22.65;10.02;;;;;;;19.78;99.92;101094.44;5085755;28;20040;-52
2022/08/20 02:24:59;;;;;;;19.88;9.27;;;;;;;19.84;98.07;101086.34;5017017;28;20044;-53
2022/08/20 02:27:25;;;;;;;19.40;9.52;;;;;;;19.82;97.03;101093.81;5097162;28;20047;-53
2022/08/20 02:29:53;;;;;;;20.45;8.88;;;;;;;19.66;97.67;101096.88;5096840;28;20048;-52
2022/08/20 02:32:20;;;;;;;18.63;9.18;;;;;;;19.61;98.12;101102.03;5096357;28;20067;-50
2022/08/20 02:34:46;;;;;;;19.08;9.02;;;;;;;19.51;98.68;101091.69;5096886;28;20051;-51
2022/08/20 02:37:15;;;;;;;22.08;9.90;;;;;;;19.53;98.50;101087.72;5096912;28;20119;-52
2022/08/20 02:39:42;;;;;;;19.35;9.75;;;;;;;19.45;100.00;101093.31;5096277;28;20422;-51
2022/08/20 02:42:10;;;;;;;19.83;9.75;;;;;;;19.50;100.00;101090.00;5097210;28;20052;-51
2022/08/20 02:44:38;;;;;;;19.85;9.57;;;;;;;19.46;100.00;101102.22;5096845;28;20122;-52
2022/08/20 02:47:06;;;;;;;19.25;9.75;;;;;;;19.53;100.00;101094.97;5095948;28;20085;-52
2022/08/20 02:49:34;;;;;;;19.65;9.68;;;;;;;19.62;100.00;101092.94;5096326;28;20083;-53
2022/08/20 02:52:00;;;;;;;21.95;10.02;;;;;;;19.52;99.29;101099.53;5096585;28;20534;-53
2022/08/20 02:54:28;;;;;;;21.05;10.43;;;;;;;19.49;99.76;101099.94;5096493;28;20485;-55
2022/08/20 02:56:55;;;;;;;18.58;9.88;;;;;;;19.61;100.00;101096.66;5096731;28;20059;-53
2022/08/20 02:59:22;;;;;;;21.75;10.15;;;;;;;19.60;99.97;101093.13;5096432;28;20048;-52
2022/08/20 03:01:51;;;;;;;28.30;11.43;;;;;;;19.62;99.47;101099.13;5095307;28;20048;-53
2022/08/20 03:04:17;;;;;;;20.98;10.13;;;;;;;19.68;99.43;101089.41;5095886;28;20077;-54
2022/08/20 03:06:44;;;;;;;23.65;9.75;;;;;;;19.73;98.01;101084.28;5096392;28;20071;-53
2022/08/20 03:09:10;;;;;;;20.35;9.85;;;;;;;19.72;98.71;101083.41;5096256;28;20050;-53
2022/08/20 03:11:38;;;;;;;23.80;10.20;;;;;;;19.62;99.89;101080.28;5096268;28;20443;-52
2022/08/20 03:14:05;;;;;;;22.60;10.52;;;;;;;19.64;99.78;101082.78;5096434;28;20477;-54
2022/08/20 03:16:32;;;;;;;22.13;10.38;;;;;;;19.61;99.31;101080.50;5095704;28;20060;-53
2022/08/20 03:18:58;;;;;;;23.25;10.95;;;;;;;19.65;99.20;101079.91;5096270;28;20040;-53
2022/08/20 03:21:25;;;;;;;21.17;10.05;;;;;;;19.69;99.37;101080.31;5092627;28;20097;-53
2022/08/20 03:23:52;;;;;;;23.80;10.30;;;;;;;19.66;99.01;101073.47;4968071;28;20072;-52
2022/08/20 03:26:19;;;;;;;21.30;9.77;;;;;;;19.66;99.68;101080.72;5094289;28;20064;-53
2022/08/20 03:28:46;;;;;;;23.13;10.45;;;;;;;19.73;99.51;101090.47;5094935;28;20051;-52
2022/08/20 03:31:14;;;;;;;26.05;11.27;;;;;;;19.73;99.98;101081.59;5095787;28;20040;-54
2022/08/20 03:33:41;;;;;;;21.48;10.77;;;;;;;19.69;100.00;101074.94;5095548;28;20154;-52
2022/08/20 03:36:08;;;;;;;25.42;10.80;;;;;;;19.75;99.47;101074.13;5095486;28;20135;-53
2022/08/20 03:38:34;;;;;;;21.13;11.10;;;;;;;19.70;100.00;101071.19;5095845;28;20044;-52
2022/08/20 03:41:02;;;;;;;29.65;12.02;;;;;;;19.65;99.79;101076.38;5094147;28;20109;-53
2022/08/20 03:43:29;;;;;;;23.40;11.05;;;;;;;19.63;100.00;101063.13;5095807;28;20043;-53
2022/08/20 03:45:56;;;;;;;24.98;11.35;;;;;;;19.65;100.00;101068.31;5095438;28;20047;-54
2022/08/20 03:48:24;;;;;;;22.38;11.02;;;;;;;19.59;100.00;101064.56;5095613;28;20044;-54
2022/08/20 03:50:50;;;;;;;20.98;11.50;;;;;;;19.61;100.00;101059.81;5095406;28;20051;-54
2022/08/20 03:53:18;;;;;;;20.35;10.70;;;;;;;19.65;100.00;101061.06;5095157;28;20056;-52
2022/08/20 03:55:46;;;;;;;24.58;10.88;;;;;;;19.54;99.29;101067.88;5095422;28;20102;-50
2022/08/20 03:58:14;;;;;;;22.25;11.25;;;;;;;19.56;98.92;101073.06;5095294;28;20044;-53
2022/08/20 04:00:46;;;;;;;23.50;11.80;;;;;;;19.56;100.00;101065.00;5095331;28;20431;-53
2022/08/20 04:03:14;;;;;;;25.38;11.98;;;;;;;19.51;100.00;101076.34;5095388;28;20047;-53
2022/08/20 04:05:42;;;;;;;27.55;12.00;;;;;;;19.33;100.00;101076.13;5093825;28;20044;-52
2022/08/20 04:08:12;;;;;;;24.80;12.38;;;;;;;19.23;100.00;101083.75;5095175;28;20152;-53
2022/08/20 04:10:39;;;;;;;27.13;12.35;;;;;;;19.34;100.00;101092.06;5095335;28;20051;-53
2022/08/20 04:13:06;;;;;;;26.63;11.82;;;;;;;19.26;100.00;101089.53;5095135;28;20570;-54
2022/08/20 04:15:34;;;;;;;25.15;12.23;;;;;;;19.38;100.00;101093.31;5094924;28;20044;-53
2022/08/20 04:18:06;;;;;;;25.75;11.00;;;;;;;19.43;98.96;101097.22;5095231;28;20135;-54
2022/08/20 04:20:35;;;;;;;21.58;9.57;;;;;;;19.22;100.00;101109.00;5094911;28;20044;-52
2022/08/20 04:23:02;;;;;;;26.38;10.57;;;;;;;19.25;100.00;101103.22;4972678;28;20538;-51
2022/08/20 04:25:32;;;;;;;21.00;9.50;;;;;;;19.13;100.00;101111.03;5090042;28;20410;-53
2022/08/20 04:28:01;;;;;;;20.65;9.52;;;;;;;19.08;100.00;101117.03;5094681;28;20070;-54
2022/08/20 04:30:29;;;;;;;21.30;9.65;;;;;;;18.86;100.00;101113.59;5093760;28;20048;-53
2022/08/20 04:32:55;;;;;;;29.00;10.85;;;;;;;18.86;100.00;101112.78;5094711;28;20493;-53
2022/08/20 04:35:23;;;;;;;24.30;10.63;;;;;;;18.76;100.00;101113.94;5094398;28;20481;-54
2022/08/20 04:37:58;;;;;;;23.05;10.82;;;;;;;18.78;100.00;101100.31;5093794;28;20039;-52
2022/08/20 04:43:12;;;;;;;20.48;10.77;;;;;;;18.98;100.00;101103.94;5094386;28;20158;-53
2022/08/20 04:45:39;;;;;;;20.17;9.82;;;;;;;19.06;100.00;101107.47;5093391;28;20047;-52
2022/08/20 04:48:06;;;;;;;26.40;10.35;;;;;;;19.11;100.00;101107.72;5094383;28;20043;-53
2022/08/20 04:50:38;;;;;;;19.52;9.70;;;;;;;19.01;100.00;101104.56;5094195;28;20052;-51
2022/08/20 04:53:08;;;;;;;20.08;9.40;;;;;;;19.03;100.00;101118.63;5094119;28;20083;-53
2022/08/20 04:55:38;;;;;;;20.02;9.82;;;;;;;18.91;100.00;101121.91;5094271;28;20085;-52
2022/08/20 04:58:06;;;;;;;19.48;9.35;;;;;;;19.04;100.00;101117.59;5094749;28;20055;-52
2022/08/20 05:00:33;;;;;;;21.83;9.38;;;;;;;19.17;100.00;101120.34;5093937;28;20052;-53
2022/08/20 05:03:01;;;;;;;20.55;9.05;;;;;;;19.18;100.00;101117.44;5094260;28;20040;-56
2022/08/20 05:05:29;;;;;;;27.23;9.55;;;;;;;19.27;100.00;101112.72;5093210;28;20082;-52
2022/08/20 05:07:57;;;;;;;23.88;9.23;;;;;;;19.37;100.00;101109.63;5094330;28;20044;-53
2022/08/20 05:10:24;;;;;;;23.08;8.48;;;;;;;19.35;100.00;101107.16;5093560;28;20432;-53
2022/08/20 05:12:51;;;;;;;21.60;8.57;;;;;;;19.25;100.00;101097.84;5094101;28;20048;-54
2022/08/20 05:15:18;;;;;;;17.65;8.73;;;;;;;19.36;100.00;101108.00;5093875;28;20486;-52
2022/08/20 05:17:45;;;;;;;16.60;8.52;;;;;;;19.41;100.00;101115.44;5093882;28;20048;-54
2022/08/20 05:20:16;;;;;;;18.45;8.13;;;;;;;19.38;100.00;101127.44;5093811;28;20130;-54
2022/08/20 05:22:43;;;;;;;19.17;8.45;;;;;;;19.25;100.00;101138.19;4976150;28;20593;-53
2022/08/20 05:25:10;;;;;;;13.93;7.95;;;;;;;19.32;100.00;101134.47;5093910;28;20064;-53
2022/08/20 05:27:36;;;;;;;14.82;7.63;;;;;;;19.32;100.00;101129.09;5090357;28;20048;-53
2022/08/20 05:30:06;;;;;;;12.55;6.32;;;;;;;19.34;100.00;101136.97;5093381;28;20097;-53
2022/08/20 05:32:34;;;;;;;14.45;6.40;;;;;;;19.32;100.00;101133.66;5093428;28;20055;-53
2022/08/20 05:35:02;;;;;;;13.60;6.22;;;;;;;19.20;100.00;101130.69;5093780;28;20095;-53
2022/08/20 05:37:30;;;;;;;15.13;5.97;;;;;;;19.15;100.00;101136.66;5093739;28;20447;-52
2022/08/20 05:39:56;;;;;;;14.88;6.38;;;;;;;19.29;100.00;101144.81;5093558;28;20071;-52
2022/08/20 05:42:24;;;;;;;15.07;6.63;;;;;;;19.31;100.00;101142.75;5093326;28;20040;-53
2022/08/20 05:44:50;;;;;;;11.70;6.03;;;;;;;19.47;100.00;101147.75;5093804;28;20501;-52
2022/08/20 05:47:17;;;;;;;15.95;6.30;;;;;;;19.33;100.00;101154.94;5093311;28;20086;-52
2022/08/20 05:49:45;;;;;;;11.20;5.90;;;;;;;19.35;100.00;101155.56;5093236;28;20051;-53
2022/08/20 05:52:11;;;;;;;12.90;6.38;;;;;;;19.14;100.00;101161.09;5093289;28;20058;-53
2022/08/20 05:54:38;;;;;;;13.82;5.80;;;;;;;19.10;100.00;101160.66;5092294;28;20096;-52
2022/08/20 05:57:05;;;;;;;12.32;6.50;;;;;;;18.93;100.00;101162.84;5092354;28;20051;-53
2022/08/20 05:59:34;;;;;;;9.75;5.80;;;;;;;19.03;100.00;101161.63;5093298;28;20048;-52
2022/08/20 06:04:23;;;;;;;11.95;5.78;;;;;;;19.01;100.00;101159.19;5093477;28;20071;-51
2022/08/20 06:04:48;;;;;;;11.18;5.72;;;;;;;19.04;100.00;101164.13;5092561;28;20048;-53
2022/08/20 06:07:15;;;;;;;10.52;6.13;;;;;;;19.07;100.00;101161.06;5093312;28;20064;-54
2022/08/20 06:09:42;;;;;;;12.15;6.60;;;;;;;18.97;100.00;101163.28;5092833;28;20055;-53
2022/08/20 06:12:09;;;;;;;12.40;6.55;;;;;;;18.89;100.00;101153.53;5093264;28;20040;-53
2022/08/20 06:14:36;;;;;;;37.35;9.60;;;;;;;18.92;100.00;101161.19;5093296;28;20055;-50
2022/08/20 06:17:06;;;;;;;24.58;11.73;;;;;;;18.99;100.00;101161.22;5093034;28;20082;-53
2022/08/20 06:19:35;;;;;;;28.27;12.90;;;;;;;18.99;100.00;101162.06;5092787;28;20040;-53
2022/08/20 06:22:03;;;;;;;30.67;16.58;;;;;;;19.09;100.00;101153.63;5088471;28;20052;-53
2022/08/20 06:24:30;;;;;;;38.15;18.33;;;;;;;19.16;100.00;101159.03;4979246;28;20130;-50
2022/08/20 06:26:59;;;;;;;40.42;19.85;;;;;;;19.22;100.00;101160.91;5093317;28;20068;-54
2022/08/20 06:29:27;;;;;;;45.72;21.85;;;;;;;19.17;100.00;101166.91;5092522;28;20059;-51
2022/08/20 06:31:55;;;;;;;51.95;24.50;;;;;;;19.17;100.00;101164.22;5090023;28;20048;-51
2022/08/20 06:34:23;;;;;;;57.42;25.65;;;;;;;19.03;100.00;101153.56;5092465;28;20044;-52
2022/08/20 06:36:49;;;;;;;61.13;32.17;;;;;;;19.16;100.00;101167.09;5088548;28;20091;-50
2022/08/20 06:39:16;;;;;;;69.65;32.50;;;;;;;19.12;100.00;101163.97;5092526;28;20123;-50
2022/08/20 06:41:43;;;;;;;70.90;32.08;;;;;;;19.10;100.00;101170.56;5091529;28;20040;-53
2022/08/20 06:44:10;;;;;;;72.75;34.95;;;;;;;19.01;100.00;101167.25;5091782;28;20485;-54
2022/08/20 06:46:37;;;;;;;68.45;33.67;;;;;;;19.02;100.00;101170.75;5091384;28;20407;-52
2022/08/20 06:49:05;;;;;;;68.40;34.17;;;;;;;19.00;100.00;101176.31;5092659;28;20055;-52
2022/08/20 06:51:33;;;;;;;74.93;36.65;;;;;;;19.00;100.00;101173.63;5092778;28;20052;-51
2022/08/20 06:53:59;;;;;;;70.03;34.75;;;;;;;18.96;100.00;101175.91;5092355;28;20052;-53
2022/08/20 06:56:26;;;;;;;77.40;34.92;;;;;;;19.09;100.00;101168.94;5091582;28;20037;-53
2022/08/20 06:58:53;;;;;;;66.43;34.15;;;;;;;19.00;100.00;101179.00;5092472;28;20060;-53
2022/08/20 07:01:20;;;;;;;70.32;34.03;;;;;;;18.88;100.00;101176.06;5095113;28;20489;-52
2022/08/20 07:03:49;;;;;;;69.28;36.33;;;;;;;18.82;100.00;101179.53;5095940;28;20055;-53
2022/08/20 07:06:17;;;;;;;76.68;33.28;;;;;;;18.75;100.00;101184.00;5096047;28;20056;-53
2022/08/20 07:08:44;;;;;;;69.93;34.42;;;;;;;18.64;100.00;101185.38;5086998;28;20044;-52
2022/08/20 07:11:11;;;;;;;70.20;34.80;;;;;;;18.57;100.00;101184.50;5095933;28;20109;-53
2022/08/20 07:13:39;;;;;;;67.70;32.90;;;;;;;18.60;100.00;101190.31;5096132;28;20047;-55
2022/08/20 07:16:06;;;;;;;69.38;32.25;;;;;;;18.68;100.00;101191.19;5095810;28;20482;-52
2022/08/20 07:18:33;;;;;;;72.60;32.40;;;;;;;18.48;100.00;101202.66;5096173;28;20055;-53
2022/08/20 07:21:00;;;;;;;68.55;30.67;;;;;;;18.52;100.00;101197.69;5095981;28;20078;-52
2022/08/20 07:23:27;;;;;;;77.10;31.38;;;;;;;18.57;100.00;101195.25;4961910;28;20128;-52
2022/08/20 07:25:54;;;;;;;70.28;31.38;;;;;;;18.56;100.00;101199.81;5096098;28;20078;-53
2022/08/20 07:28:27;;;;;;;77.10;32.38;;;;;;;18.58;100.00;101200.44;5095806;28;20492;-53
2022/08/20 07:33:41;;;;;;;73.55;32.05;;;;;;;18.60;100.00;101209.13;5095513;28;20052;-53
2022/08/20 07:36:09;;;;;;;75.30;31.48;;;;;;;18.63;100.00;101205.22;5095745;28;20066;-52
2022/08/20 07:38:36;;;;;;;58.97;27.73;;;;;;;18.54;98.09;101217.16;5092448;28;20051;-52
2022/08/20 07:41:07;;;;;;;66.25;28.95;;;;;;;18.59;99.32;101220.91;5095535;28;20044;-53
2022/08/20 07:43:34;;;;;;;66.57;28.40;;;;;;;18.72;98.92;101222.88;5092480;28;20136;-52
2022/08/20 07:46:06;;;;;;;59.00;26.83;;;;;;;18.55;98.91;101224.16;5095207;28;20047;-53
2022/08/20 07:48:35;;;;;;;65.40;25.63;;;;;;;18.65;97.14;101224.66;5095433;28;20068;-49
2022/08/20 07:51:04;;;;;;;53.67;24.13;;;;;;;18.70;97.77;101224.91;5095637;28;20076;-53
2022/08/20 07:53:33;;;;;;;54.25;24.02;;;;;;;18.74;96.22;101222.66;5095143;28;20109;-52
2022/08/20 07:56:05;;;;;;;59.03;25.13;;;;;;;18.74;97.42;101225.34;5095367;28;20040;-53
2022/08/20 07:58:34;;;;;;;52.75;23.58;;;;;;;18.87;94.81;101235.41;5095500;28;20419;-53
2022/08/20 08:01:02;;;;;;;54.30;22.67;;;;;;;18.71;94.64;101239.19;5095477;28;20044;-51
2022/08/20 08:03:28;;;;;;;49.67;22.73;;;;;;;18.84;95.42;101235.78;5094984;28;20048;-51
2022/08/20 08:05:55;;;;;;;52.00;23.33;;;;;;;18.76;94.50;101242.94;5095062;28;20028;-55
2022/08/20 08:08:27;;;;;;;51.45;23.70;;;;;;;18.77;94.80;101241.91;5095182;28;20048;-50
2022/08/20 08:10:58;;;;;;;55.23;22.20;;;;;;;18.78;96.00;101238.19;5095028;28;20040;-51
2022/08/20 08:13:32;;;;;;;53.78;23.27;;;;;;;18.77;96.00;101231.16;5094987;28;20089;-52
2022/08/20 08:16:00;;;;;;;49.85;21.60;;;;;;;18.76;93.67;101237.56;5094628;28;20055;-53
2022/08/20 08:18:36;;;;;;;52.00;22.33;;;;;;;18.79;93.35;101244.38;5094874;28;20443;-53
2022/08/20 08:21:04;;;;;;;50.67;22.50;;;;;;;18.63;94.14;101242.00;5095045;28;20446;-53
2022/08/20 08:23:31;;;;;;;51.30;21.05;;;;;;;18.64;93.77;101240.97;4960712;28;20048;-53
2022/08/20 08:25:58;;;;;;;54.42;21.55;;;;;;;18.54;93.16;101244.03;5094794;28;20090;-52
2022/08/20 08:28:28;;;;;;;51.92;21.17;;;;;;;18.48;93.81;101248.31;5094723;28;20040;-52
2022/08/20 08:30:55;;;;;;;46.50;20.98;;;;;;;18.60;93.40;101241.38;5094235;28;20504;-52
2022/08/20 08:33:26;;;;;;;44.22;21.08;;;;;;;18.68;92.99;101239.56;5094868;28;20044;-52
2022/08/20 08:35:56;;;;;;;48.47;20.37;;;;;;;18.66;92.68;101255.88;5094649;28;20585;-52
2022/08/20 08:38:23;;;;;;;44.60;20.02;;;;;;;18.53;93.93;101240.47;5094679;28;20378;-53
2022/08/20 08:40:53;;;;;;;49.83;22.15;;;;;;;18.67;94.14;101249.47;5094364;28;20043;-53
2022/08/20 08:43:24;;;;;;;44.55;20.75;;;;;;;18.65;94.44;101254.22;5094575;28;20058;-53
2022/08/20 08:45:58;;;;;;;48.20;22.50;;;;;;;18.75;93.00;101256.56;5094191;28;20040;-51
2022/08/20 08:48:32;;;;;;;62.05;22.48;;;;;;;18.71;93.80;101253.44;5091256;28;20093;-50
2022/08/20 08:51:02;;;;;;;53.90;22.80;;;;;;;18.87;94.53;101256.91;5094432;28;20270;-52
2022/08/20 08:53:35;;;;;;;50.95;21.50;;;;;;;18.89;92.55;101266.41;5090809;28;20087;-53
2022/08/20 08:56:04;;;;;;;54.45;21.88;;;;;;;19.02;91.62;101260.28;5094238;28;20046;-52
2022/08/20 08:58:34;;;;;;;49.30;22.00;;;;;;;19.08;91.81;101254.16;5094306;28;20071;-53
2022/08/20 09:01:07;;;;;;;46.10;22.35;;;;;;;19.01;91.72;101260.50;5094232;28;20047;-53
2022/08/20 09:03:37;;;;;;;47.30;21.35;;;;;;;18.93;90.65;101275.75;5093611;28;20040;-52
2022/08/20 09:06:04;;;;;;;49.58;21.00;;;;;;;18.89;89.97;101277.16;5093787;28;20127;-52
2022/08/20 09:08:40;;;;;;;48.45;21.15;;;;;;;18.92;92.09;101270.59;5093880;28;20055;-53
2022/08/20 09:11:07;;;;;;;45.58;19.83;;;;;;;18.98;90.76;101276.00;5094100;28;20048;-53
2022/08/20 09:13:34;;;;;;;43.55;19.23;;;;;;;19.20;88.89;101275.91;5093700;28;20378;-53
2022/08/20 09:16:00;;;;;;;44.92;19.52;;;;;;;19.26;87.52;101282.38;5093704;28;20058;-54
2022/08/20 09:18:27;;;;;;;46.53;17.50;;;;;;;19.01;87.46;101282.84;5093957;28;20051;-54
2022/08/20 09:20:54;;;;;;;50.20;20.58;;;;;;;19.03;88.59;101293.38;5093962;28;20109;-53
2022/08/20 09:23:21;;;;;;;61.10;21.83;;;;;;;19.01;89.71;101285.53;4958178;28;20148;-53
2022/08/20 09:25:48;;;;;;;45.38;20.33;;;;;;;18.95;90.40;101292.50;5093817;28;20043;-53
2022/08/20 09:28:14;;;;;;;58.15;22.63;;;;;;;18.99;89.05;101296.47;5092275;28;20443;-53
2022/08/20 09:30:41;;;;;;;63.20;24.80;;;;;;;18.89;88.97;101290.59;5093426;28;20400;-54
2022/08/20 09:33:08;;;;;;;61.38;25.05;;;;;;;19.03;89.76;101293.38;5092974;28;20067;-53
2022/08/20 09:35:35;;;;;;;53.45;23.23;;;;;;;19.02;90.72;101292.56;5093574;28;20048;-53
2022/08/20 09:38:01;;;;;;;54.08;24.35;;;;;;;19.07;89.67;101295.50;5093803;28;20485;-52
2022/08/20 09:40:28;;;;;;;59.53;23.98;;;;;;;19.11;88.27;101306.69;5093383;28;20188;-50
2022/08/20 09:42:55;;;;;;;58.42;24.13;;;;;;;19.18;89.22;101302.19;5093615;28;20541;-53
2022/08/20 09:45:22;;;;;;;58.20;21.90;;;;;;;19.23;87.76;101301.56;5093648;28;20120;-52
2022/08/20 09:47:49;;;;;;;56.95;22.70;;;;;;;19.13;87.75;101310.81;5093807;28;20044;-53
2022/08/20 09:50:16;;;;;;;50.22;22.33;;;;;;;18.89;88.47;101305.91;5093454;28;20067;-53
2022/08/20 09:52:46;;;;;;;55.55;23.23;;;;;;;18.95;89.11;101308.63;5093172;28;20109;-53
2022/08/20 09:55:30;;;;;;;57.78;22.13;;;;;;;19.18;87.32;101304.88;5090020;28;20044;-53
2022/08/20 09:57:58;;;;;;;54.97;24.05;;;;;;;19.17;88.36;101308.56;5109330;28;20040;-53
2022/08/20 10:00:25;;;;;;;51.22;21.65;;;;;;;19.18;86.71;101308.38;5093396;28;20052;-51
2022/08/20 10:02:51;;;;;;;60.75;23.40;;;;;;;19.15;87.27;101300.69;5089856;28;20517;-52
2022/08/20 10:05:18;;;;;;;55.38;22.52;;;;;;;19.09;89.67;101301.50;5092547;28;20121;-52
2022/08/20 10:07:45;;;;;;;51.35;22.00;;;;;;;19.07;87.80;101306.25;5093400;28;20048;-52
2022/08/20 10:10:13;;;;;;;53.63;22.17;;;;;;;19.03;88.28;101304.13;5093168;28;20117;-53
2022/08/20 10:12:40;;;;;;;49.92;22.35;;;;;;;19.08;86.92;101299.00;5093354;28;20065;-53
2022/08/20 10:15:08;;;;;;;60.20;22.40;;;;;;;18.99;88.41;101312.63;5093289;28;20436;-53
2022/08/20 10:17:38;;;;;;;55.63;23.02;;;;;;;19.13;87.36;101318.06;5093092;28;20048;-56
2022/08/20 10:20:07;;;;;;;63.38;23.17;;;;;;;19.13;88.27;101316.19;5093405;28;20044;-52
2022/08/20 10:22:34;;;;;;;59.75;23.88;;;;;;;19.21;87.57;101317.09;5030369;28;20056;-52
2022/08/20 10:25:01;;;;;;;66.10;25.15;;;;;;;19.24;87.37;101327.44;5036683;28;20381;-49
2022/08/20 10:27:28;;;;;;;55.10;22.30;;;;;;;19.09;86.85;101316.81;5093147;28;20040;-52
2022/08/20 10:29:54;;;;;;;54.50;22.88;;;;;;;19.07;87.57;101316.19;5093185;28;20094;-51
2022/08/20 10:32:21;;;;;;;53.97;23.17;;;;;;;19.16;86.25;101317.69;5092560;28;20425;-52
2022/08/20 10:34:48;;;;;;;53.70;22.33;;;;;;;19.24;86.39;101306.75;5093266;28;20103;-52
2022/08/20 10:37:22;;;;;;;49.50;22.23;;;;;;;19.12;87.35;101316.44;5096691;28;20070;-53
2022/08/20 10:39:50;;;;;;;48.88;22.42;;;;;;;19.30;88.20;101314.06;5096827;28;20050;-53
2022/08/20 10:42:17;;;;;;;53.15;22.10;;;;;;;19.32;87.33;101316.56;5096782;28;20551;-54
2022/08/20 10:44:44;;;;;;;53.78;22.45;;;;;;;19.43;88.73;101320.50;5096765;28;20075;-53
2022/08/20 10:47:15;;;;;;;52.88;22.25;;;;;;;19.64;86.02;101322.28;5096637;28;20072;-51
2022/08/20 10:49:42;;;;;;;56.33;21.27;;;;;;;19.75;83.96;101317.22;5096658;28;20493;-51
2022/08/20 10:52:08;;;;;;;41.58;20.13;;;;;;;19.73;84.10;101313.03;5096261;28;20105;-52
2022/08/20 10:54:35;;;;;;;47.97;20.40;;;;;;;19.73;83.39;101326.50;5096706;28;20044;-53
2022/08/20 10:57:03;;;;;;;48.03;21.35;;;;;;;19.51;84.84;101325.75;5096270;28;20047;-54
2022/08/20 10:59:30;;;;;;;46.17;20.30;;;;;;;19.38;84.93;101323.81;5096386;28;20207;-53
2022/08/20 11:01:56;;;;;;;48.75;21.33;;;;;;;19.45;84.91;101327.38;5095327;28;20048;-52
2022/08/20 11:04:23;;;;;;;54.35;21.38;;;;;;;19.51;85.24;101323.06;5092426;28;20040;-51
2022/08/20 11:06:50;;;;;;;56.90;22.25;;;;;;;19.64;85.50;101331.19;5095841;28;20481;-51
2022/08/20 11:09:16;;;;;;;54.22;21.77;;;;;;;19.79;82.24;101325.69;5096443;28;20052;-52
2022/08/20 11:11:44;;;;;;;50.50;22.15;;;;;;;19.85;82.10;101330.28;5093104;28;20044;-50
2022/08/20 11:14:11;;;;;;;51.33;22.15;;;;;;;19.72;82.41;101324.81;5096268;28;20115;-51
2022/08/20 11:16:37;;;;;;;45.45;20.88;;;;;;;19.82;82.69;101325.28;5096209;28;20072;-51
2022/08/20 11:19:04;;;;;;;48.65;21.13;;;;;;;19.83;83.35;101326.13;5096314;28;20501;-51
2022/08/20 11:21:31;;;;;;;49.58;20.88;;;;;;;19.82;82.25;101328.00;5096429;28;20043;-51
2022/08/20 11:23:57;;;;;;;50.25;21.63;;;;;;;19.99;81.99;101335.72;4987878;28;20051;-51